sensor_id;sensor_type;location;lat;lon;timestamp;P1;durP1;ratioP1;P2;durP2;ratioP2
50821;SDS011;36794;51.212;6.980;2024-03-02T00:01:58;1.83;;;1.17;;
50821;SDS011;36794;51.212;6.980;2024-03-02T00:04:24;4.20;;;1.20;;
50821;SDS011;36794;51.212;6.980;2024-03-02T00:06:51;2.57;;;1.30;;
50821;SDS011;36794;51.212;6.980;2024-03-02T00:09:19;4.23;;;1.20;;
50821;SDS011;36794;51.212;6.980;2024-03-02T00:11:45;4.10;;;1.40;;
50821;SDS011;36794;51.212;6.980;2024-03-02T00:14:11;2.23;;;1.27;;
50821;SDS011;36794;51.212;6.980;2024-03-02T00:16:47;3.30;;;1.40;;
50821;SDS011;36794;51.212;6.980;2024-03-02T00:19:13;2.43;;;1.20;;
50821;SDS011;36794;51.212;6.980;2024-03-02T00:21:39;2.40;;;1.23;;
50821;SDS011;36794;51.212;6.980;2024-03-02T00:24:16;4.17;;;1.20;;
50821;SDS011;36794;51.212;6.980;2024-03-02T00:26:45;1.47;;;0.90;;
50821;SDS011;36794;51.212;6.980;2024-03-02T00:29:11;3.10;;;1.13;;
50821;SDS011;36794;51.212;6.980;2024-03-02T00:31:42;2.93;;;1.07;;
50821;SDS011;36794;51.212;6.980;2024-03-02T00:34:08;1.63;;;1.03;;
50821;SDS011;36794;51.212;6.980;2024-03-02T00:36:36;4.73;;;1.57;;
50821;SDS011;36794;51.212;6.980;2024-03-02T00:39:02;5.30;;;1.17;;
50821;SDS011;36794;51.212;6.980;2024-03-02T00:41:31;1.77;;;1.00;;
50821;SDS011;36794;51.212;6.980;2024-03-02T00:44:01;1.33;;;0.70;;
50821;SDS011;36794;51.212;6.980;2024-03-02T00:46:35;1.87;;;0.97;;
50821;SDS011;36794;51.212;6.980;2024-03-02T00:49:02;1.67;;;1.03;;
50821;SDS011;36794;51.212;6.980;2024-03-02T00:51:29;1.93;;;1.07;;
50821;SDS011;36794;51.212;6.980;2024-03-02T00:53:58;2.07;;;1.10;;
50821;SDS011;36794;51.212;6.980;2024-03-02T00:56:24;2.77;;;1.20;;
50821;SDS011;36794;51.212;6.980;2024-03-02T00:58:51;2.30;;;1.03;;
50821;SDS011;36794;51.212;6.980;2024-03-02T01:01:19;2.10;;;0.87;;
50821;SDS011;36794;51.212;6.980;2024-03-02T01:03:48;1.77;;;0.80;;
50821;SDS011;36794;51.212;6.980;2024-03-02T01:06:14;2.70;;;0.97;;
50821;SDS011;36794;51.212;6.980;2024-03-02T01:08:40;2.17;;;0.90;;
50821;SDS011;36794;51.212;6.980;2024-03-02T01:11:12;3.47;;;1.27;;
50821;SDS011;36794;51.212;6.980;2024-03-02T01:13:38;1.47;;;0.80;;
50821;SDS011;36794;51.212;6.980;2024-03-02T01:16:04;2.83;;;1.27;;
50821;SDS011;36794;51.212;6.980;2024-03-02T01:18:30;2.07;;;0.80;;
50821;SDS011;36794;51.212;6.980;2024-03-02T01:20:56;3.10;;;0.90;;
50821;SDS011;36794;51.212;6.980;2024-03-02T01:23:22;4.00;;;1.00;;
50821;SDS011;36794;51.212;6.980;2024-03-02T01:25:48;2.40;;;1.30;;
50821;SDS011;36794;51.212;6.980;2024-03-02T01:28:15;2.60;;;0.90;;
50821;SDS011;36794;51.212;6.980;2024-03-02T01:30:41;5.43;;;1.57;;
50821;SDS011;36794;51.212;6.980;2024-03-02T01:33:07;2.20;;;0.97;;
50821;SDS011;36794;51.212;6.980;2024-03-02T01:35:33;3.23;;;1.00;;
50821;SDS011;36794;51.212;6.980;2024-03-02T01:38:00;3.10;;;0.90;;
50821;SDS011;36794;51.212;6.980;2024-03-02T01:40:26;3.13;;;0.77;;
50821;SDS011;36794;51.212;6.980;2024-03-02T01:42:53;1.60;;;0.90;;
50821;SDS011;36794;51.212;6.980;2024-03-02T01:45:19;2.10;;;0.80;;
50821;SDS011;36794;51.212;6.980;2024-03-02T01:47:45;4.30;;;0.93;;
50821;SDS011;36794;51.212;6.980;2024-03-02T01:50:11;2.10;;;0.60;;
50821;SDS011;36794;51.212;6.980;2024-03-02T01:52:38;3.63;;;1.00;;
50821;SDS011;36794;51.212;6.980;2024-03-02T01:55:04;3.07;;;0.80;;
50821;SDS011;36794;51.212;6.980;2024-03-02T01:57:31;2.10;;;0.90;;
50821;SDS011;36794;51.212;6.980;2024-03-02T01:59:57;2.20;;;0.70;;
50821;SDS011;36794;51.212;6.980;2024-03-02T02:02:23;1.83;;;1.00;;
50821;SDS011;36794;51.212;6.980;2024-03-02T02:04:49;2.77;;;0.90;;
50821;SDS011;36794;51.212;6.980;2024-03-02T02:07:15;2.37;;;0.80;;
50821;SDS011;36794;51.212;6.980;2024-03-02T02:09:44;2.43;;;1.20;;
50821;SDS011;36794;51.212;6.980;2024-03-02T02:12:10;2.57;;;0.90;;
50821;SDS011;36794;51.212;6.980;2024-03-02T02:14:36;3.63;;;0.90;;
50821;SDS011;36794;51.212;6.980;2024-03-02T02:17:05;2.37;;;0.70;;
50821;SDS011;36794;51.212;6.980;2024-03-02T02:19:49;4.03;;;0.93;;
50821;SDS011;36794;51.212;6.980;2024-03-02T02:22:17;2.03;;;0.90;;
50821;SDS011;36794;51.212;6.980;2024-03-02T02:24:45;1.53;;;0.70;;
50821;SDS011;36794;51.212;6.980;2024-03-02T02:27:11;2.83;;;1.10;;
50821;SDS011;36794;51.212;6.980;2024-03-02T02:29:40;1.90;;;0.70;;
50821;SDS011;36794;51.212;6.980;2024-03-02T02:32:11;1.73;;;0.73;;
50821;SDS011;36794;51.212;6.980;2024-03-02T02:34:37;1.97;;;0.70;;
50821;SDS011;36794;51.212;6.980;2024-03-02T02:37:03;3.07;;;0.77;;
50821;SDS011;36794;51.212;6.980;2024-03-02T02:39:29;1.63;;;0.80;;
50821;SDS011;36794;51.212;6.980;2024-03-02T02:41:58;3.50;;;0.80;;
50821;SDS011;36794;51.212;6.980;2024-03-02T02:44:26;3.03;;;0.80;;
50821;SDS011;36794;51.212;6.980;2024-03-02T02:46:52;1.10;;;0.70;;
50821;SDS011;36794;51.212;6.980;2024-03-02T02:49:18;2.53;;;0.80;;
50821;SDS011;36794;51.212;6.980;2024-03-02T02:51:44;2.93;;;0.70;;
50821;SDS011;36794;51.212;6.980;2024-03-02T02:54:10;3.63;;;1.30;;
50821;SDS011;36794;51.212;6.980;2024-03-02T02:56:39;3.60;;;0.80;;
50821;SDS011;36794;51.212;6.980;2024-03-02T02:59:04;3.17;;;0.87;;
50821;SDS011;36794;51.212;6.980;2024-03-02T03:01:31;4.67;;;0.77;;
50821;SDS011;36794;51.212;6.980;2024-03-02T03:03:57;1.37;;;0.70;;
50821;SDS011;36794;51.212;6.980;2024-03-02T03:06:23;1.70;;;0.60;;
50821;SDS011;36794;51.212;6.980;2024-03-02T03:08:48;3.80;;;0.90;;
50821;SDS011;36794;51.212;6.980;2024-03-02T03:11:14;2.53;;;0.80;;
50821;SDS011;36794;51.212;6.980;2024-03-02T03:13:41;2.33;;;0.80;;
50821;SDS011;36794;51.212;6.980;2024-03-02T03:16:06;1.90;;;0.80;;
50821;SDS011;36794;51.212;6.980;2024-03-02T03:18:32;1.47;;;0.60;;
50821;SDS011;36794;51.212;6.980;2024-03-02T03:20:58;2.97;;;0.90;;
50821;SDS011;36794;51.212;6.980;2024-03-02T03:23:24;4.07;;;1.33;;
50821;SDS011;36794;51.212;6.980;2024-03-02T03:25:50;2.40;;;0.70;;
50821;SDS011;36794;51.212;6.980;2024-03-02T03:28:16;1.77;;;0.73;;
50821;SDS011;36794;51.212;6.980;2024-03-02T03:30:42;1.83;;;0.83;;
50821;SDS011;36794;51.212;6.980;2024-03-02T03:33:08;2.67;;;0.90;;
50821;SDS011;36794;51.212;6.980;2024-03-02T03:35:34;2.23;;;0.70;;
50821;SDS011;36794;51.212;6.980;2024-03-02T03:38:00;1.37;;;0.70;;
50821;SDS011;36794;51.212;6.980;2024-03-02T03:40:26;3.00;;;0.87;;
50821;SDS011;36794;51.212;6.980;2024-03-02T03:42:52;3.70;;;1.20;;
50821;SDS011;36794;51.212;6.980;2024-03-02T03:45:19;4.07;;;0.77;;
50821;SDS011;36794;51.212;6.980;2024-03-02T03:47:45;3.97;;;1.07;;
50821;SDS011;36794;51.212;6.980;2024-03-02T03:50:11;4.63;;;0.93;;
50821;SDS011;36794;51.212;6.980;2024-03-02T03:52:37;3.00;;;1.10;;
50821;SDS011;36794;51.212;6.980;2024-03-02T03:55:05;4.33;;;1.00;;
50821;SDS011;36794;51.212;6.980;2024-03-02T03:57:31;2.13;;;0.90;;
50821;SDS011;36794;51.212;6.980;2024-03-02T03:59:57;1.90;;;0.73;;
50821;SDS011;36794;51.212;6.980;2024-03-02T04:02:23;2.43;;;1.13;;
50821;SDS011;36794;51.212;6.980;2024-03-02T04:04:49;1.63;;;0.90;;
50821;SDS011;36794;51.212;6.980;2024-03-02T04:07:18;2.23;;;0.70;;
50821;SDS011;36794;51.212;6.980;2024-03-02T04:09:44;1.87;;;0.70;;
50821;SDS011;36794;51.212;6.980;2024-03-02T04:12:10;3.13;;;0.80;;
50821;SDS011;36794;51.212;6.980;2024-03-02T04:14:38;2.30;;;0.80;;
50821;SDS011;36794;51.212;6.980;2024-03-02T04:17:04;2.37;;;1.03;;
50821;SDS011;36794;51.212;6.980;2024-03-02T04:19:30;2.37;;;0.80;;
50821;SDS011;36794;51.212;6.980;2024-03-02T04:21:56;1.40;;;0.77;;
50821;SDS011;36794;51.212;6.980;2024-03-02T04:24:22;2.80;;;1.00;;
50821;SDS011;36794;51.212;6.980;2024-03-02T04:26:48;3.03;;;1.20;;
50821;SDS011;36794;51.212;6.980;2024-03-02T04:29:13;3.57;;;0.97;;
50821;SDS011;36794;51.212;6.980;2024-03-02T04:31:39;3.60;;;1.87;;
50821;SDS011;36794;51.212;6.980;2024-03-02T04:34:05;2.50;;;0.83;;
50821;SDS011;36794;51.212;6.980;2024-03-02T04:36:31;4.63;;;0.90;;
50821;SDS011;36794;51.212;6.980;2024-03-02T04:38:58;4.17;;;1.10;;
50821;SDS011;36794;51.212;6.980;2024-03-02T04:41:24;2.33;;;0.70;;
50821;SDS011;36794;51.212;6.980;2024-03-02T04:43:49;2.93;;;0.83;;
50821;SDS011;36794;51.212;6.980;2024-03-02T04:46:15;3.00;;;1.00;;
50821;SDS011;36794;51.212;6.980;2024-03-02T04:48:41;2.77;;;1.00;;
50821;SDS011;36794;51.212;6.980;2024-03-02T04:51:07;1.50;;;0.70;;
50821;SDS011;36794;51.212;6.980;2024-03-02T04:53:33;1.87;;;0.80;;
50821;SDS011;36794;51.212;6.980;2024-03-02T04:55:59;2.63;;;0.80;;
50821;SDS011;36794;51.212;6.980;2024-03-02T04:58:44;2.50;;;0.80;;
50821;SDS011;36794;51.212;6.980;2024-03-02T05:01:10;1.40;;;0.80;;
50821;SDS011;36794;51.212;6.980;2024-03-02T05:03:36;2.20;;;1.23;;
50821;SDS011;36794;51.212;6.980;2024-03-02T05:06:02;1.63;;;1.00;;
50821;SDS011;36794;51.212;6.980;2024-03-02T05:08:28;1.77;;;0.90;;
50821;SDS011;36794;51.212;6.980;2024-03-02T05:10:54;3.43;;;1.10;;
50821;SDS011;36794;51.212;6.980;2024-03-02T05:13:40;3.43;;;1.47;;
50821;SDS011;36794;51.212;6.980;2024-03-02T05:16:06;1.97;;;1.13;;
50821;SDS011;36794;51.212;6.980;2024-03-02T05:18:32;3.03;;;1.10;;
50821;SDS011;36794;51.212;6.980;2024-03-02T05:20:58;3.97;;;1.70;;
50821;SDS011;36794;51.212;6.980;2024-03-02T05:23:27;2.60;;;1.40;;
50821;SDS011;36794;51.212;6.980;2024-03-02T05:25:53;1.93;;;1.10;;
50821;SDS011;36794;51.212;6.980;2024-03-02T05:28:21;2.40;;;1.13;;
50821;SDS011;36794;51.212;6.980;2024-03-02T05:30:47;3.13;;;1.10;;
50821;SDS011;36794;51.212;6.980;2024-03-02T05:33:14;3.83;;;1.40;;
50821;SDS011;36794;51.212;6.980;2024-03-02T05:35:40;3.33;;;1.30;;
50821;SDS011;36794;51.212;6.980;2024-03-02T05:38:06;3.90;;;1.37;;
50821;SDS011;36794;51.212;6.980;2024-03-02T05:40:32;2.33;;;1.17;;
50821;SDS011;36794;51.212;6.980;2024-03-02T05:42:58;2.23;;;1.20;;
50821;SDS011;36794;51.212;6.980;2024-03-02T05:45:24;2.77;;;0.90;;
50821;SDS011;36794;51.212;6.980;2024-03-02T05:47:50;3.50;;;1.20;;
50821;SDS011;36794;51.212;6.980;2024-03-02T05:50:16;3.17;;;1.50;;
50821;SDS011;36794;51.212;6.980;2024-03-02T05:52:41;1.80;;;0.93;;
50821;SDS011;36794;51.212;6.980;2024-03-02T05:55:07;2.47;;;1.13;;
50821;SDS011;36794;51.212;6.980;2024-03-02T05:57:33;3.07;;;1.20;;
50821;SDS011;36794;51.212;6.980;2024-03-02T06:00:27;4.27;;;1.33;;
50821;SDS011;36794;51.212;6.980;2024-03-02T06:02:52;3.23;;;1.40;;
50821;SDS011;36794;51.212;6.980;2024-03-02T06:05:18;4.40;;;1.37;;
50821;SDS011;36794;51.212;6.980;2024-03-02T06:07:44;3.10;;;1.13;;
50821;SDS011;36794;51.212;6.980;2024-03-02T06:10:10;5.27;;;1.20;;
50821;SDS011;36794;51.212;6.980;2024-03-02T06:12:36;4.57;;;1.20;;
50821;SDS011;36794;51.212;6.980;2024-03-02T06:15:02;2.30;;;1.17;;
50821;SDS011;36794;51.212;6.980;2024-03-02T06:17:28;4.77;;;1.40;;
50821;SDS011;36794;51.212;6.980;2024-03-02T06:19:55;2.80;;;1.40;;
50821;SDS011;36794;51.212;6.980;2024-03-02T06:22:24;3.43;;;1.80;;
50821;SDS011;36794;51.212;6.980;2024-03-02T06:24:50;3.07;;;1.90;;
50821;SDS011;36794;51.212;6.980;2024-03-02T06:27:16;2.93;;;1.30;;
50821;SDS011;36794;51.212;6.980;2024-03-02T06:29:42;2.40;;;1.17;;
50821;SDS011;36794;51.212;6.980;2024-03-02T06:32:08;2.60;;;1.30;;
50821;SDS011;36794;51.212;6.980;2024-03-02T06:34:34;4.43;;;1.40;;
50821;SDS011;36794;51.212;6.980;2024-03-02T06:37:00;5.37;;;1.50;;
50821;SDS011;36794;51.212;6.980;2024-03-02T06:39:26;2.00;;;1.13;;
50821;SDS011;36794;51.212;6.980;2024-03-02T06:41:52;4.23;;;1.73;;
50821;SDS011;36794;51.212;6.980;2024-03-02T06:44:18;4.83;;;2.00;;
50821;SDS011;36794;51.212;6.980;2024-03-02T06:46:44;2.60;;;1.40;;
50821;SDS011;36794;51.212;6.980;2024-03-02T06:49:10;5.33;;;1.77;;
50821;SDS011;36794;51.212;6.980;2024-03-02T06:51:36;2.77;;;1.60;;
50821;SDS011;36794;51.212;6.980;2024-03-02T06:54:02;3.50;;;1.47;;
50821;SDS011;36794;51.212;6.980;2024-03-02T06:56:28;2.63;;;1.63;;
50821;SDS011;36794;51.212;6.980;2024-03-02T06:58:54;4.17;;;1.57;;
50821;SDS011;36794;51.212;6.980;2024-03-02T07:01:20;3.30;;;1.60;;
50821;SDS011;36794;51.212;6.980;2024-03-02T07:03:46;3.27;;;1.50;;
50821;SDS011;36794;51.212;6.980;2024-03-02T07:06:12;3.07;;;1.30;;
50821;SDS011;36794;51.212;6.980;2024-03-02T07:08:38;3.83;;;1.80;;
50821;SDS011;36794;51.212;6.980;2024-03-02T07:11:04;4.17;;;1.43;;
50821;SDS011;36794;51.212;6.980;2024-03-02T07:13:29;4.07;;;1.87;;
50821;SDS011;36794;51.212;6.980;2024-03-02T07:15:55;2.27;;;1.40;;
50821;SDS011;36794;51.212;6.980;2024-03-02T07:18:27;3.90;;;2.00;;
50821;SDS011;36794;51.212;6.980;2024-03-02T07:20:53;6.23;;;2.00;;
50821;SDS011;36794;51.212;6.980;2024-03-02T07:23:23;3.47;;;1.70;;
50821;SDS011;36794;51.212;6.980;2024-03-02T07:25:52;2.47;;;1.60;;
50821;SDS011;36794;51.212;6.980;2024-03-02T07:28:20;3.10;;;1.70;;
50821;SDS011;36794;51.212;6.980;2024-03-02T07:30:46;3.87;;;1.77;;
50821;SDS011;36794;51.212;6.980;2024-03-02T07:33:13;4.80;;;1.60;;
50821;SDS011;36794;51.212;6.980;2024-03-02T07:35:41;3.90;;;1.60;;
50821;SDS011;36794;51.212;6.980;2024-03-02T07:38:08;4.03;;;1.70;;
50821;SDS011;36794;51.212;6.980;2024-03-02T07:40:34;2.13;;;1.47;;
50821;SDS011;36794;51.212;6.980;2024-03-02T07:43:00;4.70;;;1.97;;
50821;SDS011;36794;51.212;6.980;2024-03-02T07:45:26;2.53;;;1.30;;
50821;SDS011;36794;51.212;6.980;2024-03-02T07:47:51;3.13;;;1.50;;
50821;SDS011;36794;51.212;6.980;2024-03-02T07:50:18;4.23;;;1.60;;
50821;SDS011;36794;51.212;6.980;2024-03-02T07:52:44;3.43;;;1.50;;
50821;SDS011;36794;51.212;6.980;2024-03-02T07:55:10;2.90;;;1.37;;
50821;SDS011;36794;51.212;6.980;2024-03-02T07:57:36;2.93;;;1.63;;
50821;SDS011;36794;51.212;6.980;2024-03-02T08:00:02;3.27;;;1.57;;
50821;SDS011;36794;51.212;6.980;2024-03-02T08:02:29;2.60;;;1.57;;
50821;SDS011;36794;51.212;6.980;2024-03-02T08:04:55;3.70;;;1.57;;
50821;SDS011;36794;51.212;6.980;2024-03-02T08:07:21;1.90;;;1.10;;
50821;SDS011;36794;51.212;6.980;2024-03-02T08:09:46;5.47;;;1.57;;
50821;SDS011;36794;51.212;6.980;2024-03-02T08:12:12;3.77;;;1.40;;
50821;SDS011;36794;51.212;6.980;2024-03-02T08:14:38;4.50;;;1.50;;
50821;SDS011;36794;51.212;6.980;2024-03-02T08:17:05;2.37;;;1.20;;
50821;SDS011;36794;51.212;6.980;2024-03-02T08:19:34;2.73;;;1.23;;
50821;SDS011;36794;51.212;6.980;2024-03-02T08:22:00;3.10;;;1.40;;
50821;SDS011;36794;51.212;6.980;2024-03-02T08:24:26;8.80;;;1.47;;
50821;SDS011;36794;51.212;6.980;2024-03-02T08:26:52;4.47;;;1.57;;
50821;SDS011;36794;51.212;6.980;2024-03-02T08:29:18;4.13;;;1.83;;
50821;SDS011;36794;51.212;6.980;2024-03-02T08:31:44;2.33;;;1.30;;
50821;SDS011;36794;51.212;6.980;2024-03-02T08:34:10;1.87;;;1.20;;
50821;SDS011;36794;51.212;6.980;2024-03-02T08:36:36;3.65;;;1.48;;
50821;SDS011;36794;51.212;6.980;2024-03-02T08:39:03;3.28;;;1.30;;
50821;SDS011;36794;51.212;6.980;2024-03-02T08:41:32;4.18;;;1.30;;
50821;SDS011;36794;51.212;6.980;2024-03-02T08:43:58;4.68;;;1.30;;
50821;SDS011;36794;51.212;6.980;2024-03-02T08:46:31;3.92;;;1.35;;
50821;SDS011;36794;51.212;6.980;2024-03-02T08:48:57;3.67;;;1.35;;
50821;SDS011;36794;51.212;6.980;2024-03-02T08:51:23;2.35;;;1.10;;
50821;SDS011;36794;51.212;6.980;2024-03-02T08:53:49;2.00;;;1.10;;
50821;SDS011;36794;51.212;6.980;2024-03-02T08:56:15;2.28;;;1.00;;
50821;SDS011;36794;51.212;6.980;2024-03-02T08:58:41;5.95;;;1.10;;
50821;SDS011;36794;51.212;6.980;2024-03-02T09:01:07;3.92;;;1.27;;
50821;SDS011;36794;51.212;6.980;2024-03-02T09:03:33;3.10;;;0.82;;
50821;SDS011;36794;51.212;6.980;2024-03-02T09:06:00;2.95;;;1.20;;
50821;SDS011;36794;51.212;6.980;2024-03-02T09:08:26;2.83;;;0.90;;
50821;SDS011;36794;51.212;6.980;2024-03-02T09:10:52;1.98;;;0.90;;
50821;SDS011;36794;51.212;6.980;2024-03-02T09:13:18;6.47;;;1.00;;
50821;SDS011;36794;51.212;6.980;2024-03-02T09:15:44;4.30;;;1.08;;
50821;SDS011;36794;51.212;6.980;2024-03-02T09:18:10;3.78;;;0.93;;
50821;SDS011;36794;51.212;6.980;2024-03-02T09:20:36;1.88;;;0.80;;
50821;SDS011;36794;51.212;6.980;2024-03-02T09:23:05;2.85;;;0.90;;
50821;SDS011;36794;51.212;6.980;2024-03-02T09:25:31;2.85;;;1.00;;
50821;SDS011;36794;51.212;6.980;2024-03-02T09:27:57;1.83;;;0.80;;
50821;SDS011;36794;51.212;6.980;2024-03-02T09:30:23;3.22;;;1.05;;
50821;SDS011;36794;51.212;6.980;2024-03-02T09:32:49;4.70;;;0.93;;
50821;SDS011;36794;51.212;6.980;2024-03-02T09:35:15;2.67;;;0.90;;
50821;SDS011;36794;51.212;6.980;2024-03-02T09:37:43;2.00;;;0.65;;
50821;SDS011;36794;51.212;6.980;2024-03-02T09:40:09;2.97;;;1.02;;
50821;SDS011;36794;51.212;6.980;2024-03-02T09:42:43;2.80;;;0.80;;
50821;SDS011;36794;51.212;6.980;2024-03-02T09:45:18;2.58;;;1.00;;
50821;SDS011;36794;51.212;6.980;2024-03-02T09:47:48;1.98;;;0.80;;
50821;SDS011;36794;51.212;6.980;2024-03-02T09:50:14;3.00;;;0.80;;
50821;SDS011;36794;51.212;6.980;2024-03-02T09:52:42;1.88;;;0.82;;
50821;SDS011;36794;51.212;6.980;2024-03-02T09:55:09;2.33;;;0.90;;
50821;SDS011;36794;51.212;6.980;2024-03-02T09:57:38;3.40;;;0.93;;
50821;SDS011;36794;51.212;6.980;2024-03-02T10:00:06;1.33;;;0.60;;
50821;SDS011;36794;51.212;6.980;2024-03-02T10:02:33;2.10;;;0.88;;
50821;SDS011;36794;51.212;6.980;2024-03-02T10:04:59;2.85;;;0.60;;
50821;SDS011;36794;51.212;6.980;2024-03-02T10:07:25;1.83;;;0.90;;
50821;SDS011;36794;51.212;6.980;2024-03-02T10:09:51;1.65;;;1.05;;
50821;SDS011;36794;51.212;6.980;2024-03-02T10:12:17;4.18;;;0.75;;
50821;SDS011;36794;51.212;6.980;2024-03-02T10:14:44;3.17;;;0.80;;
50821;SDS011;36794;51.212;6.980;2024-03-02T10:17:18;2.83;;;0.88;;
50821;SDS011;36794;51.212;6.980;2024-03-02T10:19:49;1.88;;;0.65;;
50821;SDS011;36794;51.212;6.980;2024-03-02T10:22:23;2.25;;;0.60;;
50821;SDS011;36794;51.212;6.980;2024-03-02T10:24:49;1.58;;;0.68;;
50821;SDS011;36794;51.212;6.980;2024-03-02T10:27:26;3.10;;;0.60;;
50821;SDS011;36794;51.212;6.980;2024-03-02T10:29:53;1.98;;;0.50;;
50821;SDS011;36794;51.212;6.980;2024-03-02T10:32:19;2.67;;;0.60;;
50821;SDS011;36794;51.212;6.980;2024-03-02T10:34:47;3.83;;;0.88;;
50821;SDS011;36794;51.212;6.980;2024-03-02T10:37:14;2.15;;;0.60;;
50821;SDS011;36794;51.212;6.980;2024-03-02T10:39:40;4.32;;;0.50;;
50821;SDS011;36794;51.212;6.980;2024-03-02T10:42:06;2.25;;;0.60;;
50821;SDS011;36794;51.212;6.980;2024-03-02T10:44:33;3.17;;;0.80;;
50821;SDS011;36794;51.212;6.980;2024-03-02T10:47:00;2.38;;;0.60;;
50821;SDS011;36794;51.212;6.980;2024-03-02T10:49:27;3.10;;;0.75;;
50821;SDS011;36794;51.212;6.980;2024-03-02T10:51:58;1.67;;;0.65;;
50821;SDS011;36794;51.212;6.980;2024-03-02T10:54:24;1.63;;;0.68;;
50821;SDS011;36794;51.212;6.980;2024-03-02T10:57:03;1.65;;;0.65;;
50821;SDS011;36794;51.212;6.980;2024-03-02T10:59:34;1.65;;;0.70;;
50821;SDS011;36794;51.212;6.980;2024-03-02T11:02:01;3.17;;;0.68;;
50821;SDS011;36794;51.212;6.980;2024-03-02T11:04:27;2.08;;;0.60;;
50821;SDS011;36794;51.212;6.980;2024-03-02T11:09:59;5.28;;;0.82;;
50821;SDS011;36794;51.212;6.980;2024-03-02T11:12:35;2.20;;;0.85;;
50821;SDS011;36794;51.212;6.980;2024-03-02T11:15:02;3.58;;;0.75;;
50821;SDS011;36794;51.212;6.980;2024-03-02T11:17:30;3.67;;;0.75;;
50821;SDS011;36794;51.212;6.980;2024-03-02T11:19:57;2.50;;;0.60;;
50821;SDS011;36794;51.212;6.980;2024-03-02T11:22:23;2.05;;;0.68;;
50821;SDS011;36794;51.212;6.980;2024-03-02T11:24:50;2.92;;;0.70;;
50821;SDS011;36794;51.212;6.980;2024-03-02T11:32:57;3.78;;;0.60;;
50821;SDS011;36794;51.212;6.980;2024-03-02T11:35:24;2.72;;;0.60;;
50821;SDS011;36794;51.212;6.980;2024-03-02T11:37:52;1.52;;;0.52;;
50821;SDS011;36794;51.212;6.980;2024-03-02T11:40:30;1.73;;;0.55;;
50821;SDS011;36794;51.212;6.980;2024-03-02T11:42:56;2.72;;;0.50;;
50821;SDS011;36794;51.212;6.980;2024-03-02T11:45:26;2.75;;;1.10;;
50821;SDS011;36794;51.212;6.980;2024-03-02T11:47:55;3.30;;;0.75;;
50821;SDS011;36794;51.212;6.980;2024-03-02T11:50:30;2.42;;;0.60;;
50821;SDS011;36794;51.212;6.980;2024-03-02T11:52:59;3.03;;;0.52;;
50821;SDS011;36794;51.212;6.980;2024-03-02T11:55:25;1.50;;;0.50;;
50821;SDS011;36794;51.212;6.980;2024-03-02T11:57:54;2.33;;;0.60;;
50821;SDS011;36794;51.212;6.980;2024-03-02T12:00:20;3.63;;;0.70;;
50821;SDS011;36794;51.212;6.980;2024-03-02T12:02:47;1.13;;;0.40;;
50821;SDS011;36794;51.212;6.980;2024-03-02T12:05:22;1.75;;;0.50;;
50821;SDS011;36794;51.212;6.980;2024-03-02T12:07:48;2.92;;;0.60;;
50821;SDS011;36794;51.212;6.980;2024-03-02T12:10:14;1.48;;;0.45;;
50821;SDS011;36794;51.212;6.980;2024-03-02T12:12:40;2.50;;;0.52;;
50821;SDS011;36794;51.212;6.980;2024-03-02T12:15:09;2.28;;;0.60;;
50821;SDS011;36794;51.212;6.980;2024-03-02T12:17:35;2.13;;;0.70;;
50821;SDS011;36794;51.212;6.980;2024-03-02T12:22:57;1.05;;;0.50;;
50821;SDS011;36794;51.212;6.980;2024-03-02T12:25:31;1.73;;;0.50;;
50821;SDS011;36794;51.212;6.980;2024-03-02T12:28:01;0.90;;;0.40;;
50821;SDS011;36794;51.212;6.980;2024-03-02T12:30:29;2.03;;;0.40;;
50821;SDS011;36794;51.212;6.980;2024-03-02T12:33:03;1.33;;;0.50;;
50821;SDS011;36794;51.212;6.980;2024-03-02T12:35:30;2.60;;;0.50;;
50821;SDS011;36794;51.212;6.980;2024-03-02T12:37:56;1.63;;;0.53;;
50821;SDS011;36794;51.212;6.980;2024-03-02T12:40:23;1.20;;;0.60;;
50821;SDS011;36794;51.212;6.980;2024-03-02T12:42:54;1.90;;;0.40;;
50821;SDS011;36794;51.212;6.980;2024-03-02T12:45:20;1.17;;;0.40;;
50821;SDS011;36794;51.212;6.980;2024-03-02T12:47:50;1.60;;;0.60;;
50821;SDS011;36794;51.212;6.980;2024-03-02T12:50:17;3.10;;;0.60;;
50821;SDS011;36794;51.212;6.980;2024-03-02T12:52:44;2.83;;;0.80;;
50821;SDS011;36794;51.212;6.980;2024-03-02T12:55:19;1.90;;;1.00;;
50821;SDS011;36794;51.212;6.980;2024-03-02T12:57:49;1.07;;;0.80;;
50821;SDS011;36794;51.212;6.980;2024-03-02T13:00:17;2.90;;;1.30;;
50821;SDS011;36794;51.212;6.980;2024-03-02T13:02:45;2.20;;;1.20;;
50821;SDS011;36794;51.212;6.980;2024-03-02T13:05:11;2.67;;;0.90;;
50821;SDS011;36794;51.212;6.980;2024-03-02T13:07:38;3.50;;;1.10;;
50821;SDS011;36794;51.212;6.980;2024-03-02T13:10:10;3.70;;;0.73;;
50821;SDS011;36794;51.212;6.980;2024-03-02T13:12:38;2.43;;;0.90;;
50821;SDS011;36794;51.212;6.980;2024-03-02T13:15:04;2.83;;;0.67;;
50821;SDS011;36794;51.212;6.980;2024-03-02T13:17:30;1.43;;;0.60;;
50821;SDS011;36794;51.212;6.980;2024-03-02T13:19:59;4.00;;;0.70;;
50821;SDS011;36794;51.212;6.980;2024-03-02T13:22:25;2.80;;;0.77;;
50821;SDS011;36794;51.212;6.980;2024-03-02T13:25:10;5.97;;;0.70;;
50821;SDS011;36794;51.212;6.980;2024-03-02T13:27:36;1.83;;;0.93;;
50821;SDS011;36794;51.212;6.980;2024-03-02T13:30:05;2.73;;;0.83;;
50821;SDS011;36794;51.212;6.980;2024-03-02T13:32:33;1.20;;;0.40;;
50821;SDS011;36794;51.212;6.980;2024-03-02T13:34:59;2.07;;;0.80;;
50821;SDS011;36794;51.212;6.980;2024-03-02T13:37:25;3.43;;;0.50;;
50821;SDS011;36794;51.212;6.980;2024-03-02T13:39:51;1.03;;;0.50;;
50821;SDS011;36794;51.212;6.980;2024-03-02T13:42:17;1.53;;;0.60;;
50821;SDS011;36794;51.212;6.980;2024-03-02T13:44:44;2.03;;;0.40;;
50821;SDS011;36794;51.212;6.980;2024-03-02T13:47:14;1.77;;;0.33;;
50821;SDS011;36794;51.212;6.980;2024-03-02T13:49:41;1.60;;;0.47;;
50821;SDS011;36794;51.212;6.980;2024-03-02T13:52:14;1.03;;;0.40;;
50821;SDS011;36794;51.212;6.980;2024-03-02T13:54:41;0.73;;;0.50;;
50821;SDS011;36794;51.212;6.980;2024-03-02T13:57:15;1.23;;;0.40;;
50821;SDS011;36794;51.212;6.980;2024-03-02T13:59:45;1.00;;;0.50;;
50821;SDS011;36794;51.212;6.980;2024-03-02T14:02:11;2.17;;;0.40;;
50821;SDS011;36794;51.212;6.980;2024-03-02T14:04:45;0.90;;;0.50;;
50821;SDS011;36794;51.212;6.980;2024-03-02T14:07:15;0.60;;;0.40;;
50821;SDS011;36794;51.212;6.980;2024-03-02T14:09:59;0.97;;;0.40;;
50821;SDS011;36794;51.212;6.980;2024-03-02T14:12:25;0.43;;;0.23;;
50821;SDS011;36794;51.212;6.980;2024-03-02T14:14:51;0.80;;;0.33;;
50821;SDS011;36794;51.212;6.980;2024-03-02T14:17:22;1.42;;;0.40;;
50821;SDS011;36794;51.212;6.980;2024-03-02T14:19:51;0.57;;;0.40;;
50821;SDS011;36794;51.212;6.980;2024-03-02T14:22:18;1.58;;;0.25;;
50821;SDS011;36794;51.212;6.980;2024-03-02T14:24:45;1.00;;;0.38;;
50821;SDS011;36794;51.212;6.980;2024-03-02T14:27:14;0.50;;;0.40;;
50821;SDS011;36794;51.212;6.980;2024-03-02T14:29:40;1.42;;;0.40;;
50821;SDS011;36794;51.212;6.980;2024-03-02T14:32:06;2.10;;;0.45;;
50821;SDS011;36794;51.212;6.980;2024-03-02T14:34:40;0.68;;;0.32;;
50821;SDS011;36794;51.212;6.980;2024-03-02T14:37:06;4.47;;;0.30;;
50821;SDS011;36794;51.212;6.980;2024-03-02T14:39:35;1.08;;;0.40;;
50821;SDS011;36794;51.212;6.980;2024-03-02T14:42:07;1.88;;;0.40;;
50821;SDS011;36794;51.212;6.980;2024-03-02T14:47:15;0.93;;;0.40;;
50821;SDS011;36794;51.212;6.980;2024-03-02T14:49:46;1.23;;;0.40;;
50821;SDS011;36794;51.212;6.980;2024-03-02T14:52:12;0.60;;;0.30;;
50821;SDS011;36794;51.212;6.980;2024-03-02T14:54:42;3.73;;;0.40;;
50821;SDS011;36794;51.212;6.980;2024-03-02T14:57:08;2.00;;;0.60;;
50821;SDS011;36794;51.212;6.980;2024-03-02T14:59:36;0.73;;;0.40;;
50821;SDS011;36794;51.212;6.980;2024-03-02T15:02:06;2.50;;;0.60;;
50821;SDS011;36794;51.212;6.980;2024-03-02T15:04:33;0.90;;;0.40;;